Nearby METAR Reports

 

YSRI - Richmond (aus-Af, Australia
Distance from station: SW 65km
Updated: 04/12/2020 10:00
Clear
Clear
 Wind from ENE
Wind: ENE 6 km/h
Temperature: 25°C
Dew Point: 19°C
Humidity: 69%
Barometer: 1014 hPa
Clouds: Clear
Visibility: 10 km
2020/12/03 23:00 YSRI 032300Z AUTO 06003KT 9999 // NCD 25/19 Q1014
YWLM - Williamtown Arp, Australia
Distance from station: NE 69km
Updated: 04/12/2020 10:00
Few Clouds
Few Clouds
 Wind from SSE
Wind: SSE 17 km/h
Temperature: 24°C
Dew Point: 20°C
Humidity: 78%
Barometer: 1015 hPa
Clouds: Few Clouds
Visibility: 10 km
Cloud details: Few Clouds 549 m
2020/12/03 23:00 YWLM 032300Z 15009KT 9999 FEW018 24/20 Q1015
 
YSSY - Sydney Intl Airp, Australia
Distance from station: SSW 77km
Updated: 04/12/2020 10:00
Clear
Clear
 Wind from SE
Wind: SE 15 km/h
Temperature: 24°C
Dew Point: 17°C
Humidity: 65%
Barometer: 1014 hPa
Summary: Clear
Visibility: greater than 10 km
2020/12/03 23:00 YSSY 032300Z 14008KT CAVOK 24/17 Q1014